Time;durP1;ratioP1;P1;durP2;ratioP2;P2;SDS_P1;SDS_P2;PMS_P1;PMS_P2;Temp;Humidity;BMP_temperature;BMP_pressure;BME280_temperature;BME280_humidity;BME280_pressure;Samples;Min_cycle;Max_cycle;Signal;HPM_P1;HPM_P2
2022/05/11 00:02:00;;;;;;;8.23;2.55;;;;;;;20.07;35.71;98909.56;4471328;32;20085;-87
2022/05/11 00:04:25;;;;;;;7.22;2.60;;;;;;;20.04;35.70;98900.81;4471455;32;20100;-88
2022/05/11 00:06:50;;;;;;;9.65;2.90;;;;;;;20.06;35.72;98907.88;4471438;32;20142;-87
2022/05/11 00:09:16;;;;;;;8.30;2.50;;;;;;;20.07;35.71;98910.41;4471431;32;20077;-88
2022/05/11 00:11:43;;;;;;;8.15;2.55;;;;;;;19.96;34.95;98899.84;4471388;32;20431;-87
2022/05/11 00:14:09;;;;;;;7.32;2.40;;;;;;;20.02;34.72;98901.97;4457229;32;20084;-87
2022/05/11 00:16:35;;;;;;;9.35;2.58;;;;;;;19.97;34.63;98898.84;4471388;32;20176;-86
2022/05/11 00:19:01;;;;;;;7.50;2.47;;;;;;;20.01;34.67;98894.91;4471342;32;20360;-87
2022/05/11 00:21:26;;;;;;;8.43;2.33;;;;;;;19.93;35.08;98895.63;4471122;32;20080;-87
2022/05/11 00:23:53;;;;;;;10.60;2.60;;;;;;;20.02;35.28;98902.81;4471191;32;20092;-87
2022/05/11 00:26:19;;;;;;;10.63;2.80;;;;;;;20.07;35.37;98901.53;4471190;32;20093;-87
2022/05/11 00:28:44;;;;;;;9.57;2.85;;;;;;;20.01;35.63;98897.59;4471314;32;20117;-87
2022/05/11 00:31:10;;;;;;;9.35;2.72;;;;;;;20.01;35.84;98893.09;4471009;32;20141;-87
2022/05/11 00:33:36;;;;;;;7.62;2.65;;;;;;;19.97;36.05;98896.19;4471247;32;20096;-87
2022/05/11 00:36:02;;;;;;;6.30;2.35;;;;;;;19.96;36.24;98897.19;4471104;32;20096;-86
2022/05/11 00:38:28;;;;;;;9.43;2.70;;;;;;;19.94;36.14;98891.97;4471149;32;20123;-86
2022/05/11 00:40:57;;;;;;;8.75;2.80;;;;;;;19.95;36.15;98899.03;4471401;32;20116;-87
2022/05/11 00:43:30;;;;;;;9.38;2.80;;;;;;;19.95;36.16;98895.47;4471450;32;20099;-87
2022/05/11 00:46:08;;;;;;;8.18;3.10;;;;;;;19.97;35.83;98898.84;4471340;32;20097;-87
2022/05/11 00:51:17;;;;;;;9.55;2.83;;;;;;;19.82;35.76;98899.28;4471234;32;20179;-87
2022/05/11 00:53:45;;;;;;;8.73;2.90;;;;;;;19.86;35.93;98891.84;4470956;32;20080;-87
2022/05/11 00:56:11;;;;;;;10.20;3.30;;;;;;;19.93;36.02;98887.59;4471037;32;20168;-87
2022/05/11 00:58:40;;;;;;;10.27;3.12;;;;;;;19.95;36.14;98891.00;4470706;32;20510;-87
2022/05/11 01:01:06;;;;;;;8.80;3.00;;;;;;;19.94;36.52;98893.81;4456824;32;20089;-87
2022/05/11 01:03:45;;;;;;;9.30;3.20;;;;;;;19.85;37.44;98890.13;4456683;32;20126;-87
2022/05/11 01:06:11;;;;;;;9.95;3.53;;;;;;;19.91;37.65;98896.75;4456736;32;20158;-86
2022/05/11 01:08:38;;;;;;;9.07;2.90;;;;;;;19.65;38.42;98899.94;4470713;32;20462;-88
2022/05/11 01:11:04;;;;;;;8.95;3.30;;;;;;;19.51;38.86;98890.50;4470795;32;20115;-87
2022/05/11 01:13:31;;;;;;;10.30;3.10;;;;;;;19.59;38.63;98887.16;4456655;32;20093;-87
2022/05/11 01:15:58;;;;;;;10.43;3.60;;;;;;;19.63;38.53;98888.56;4472525;32;20131;-88
2022/05/11 01:18:24;;;;;;;7.95;3.50;;;;;;;19.56;39.08;98901.59;4458596;32;20234;-88
2022/05/11 01:20:51;;;;;;;11.02;3.45;;;;;;;19.43;39.50;98896.53;4472550;32;20092;-87
2022/05/11 01:23:35;;;;;;;11.60;3.50;;;;;;;19.62;39.06;98900.22;4472632;32;20107;-88
2022/05/11 01:26:01;;;;;;;9.90;3.60;;;;;;;19.41;39.78;98893.16;4472554;32;20199;-88
2022/05/11 01:28:27;;;;;;;9.52;3.60;;;;;;;19.28;40.14;98895.22;4472622;32;20115;-87
2022/05/11 01:31:01;;;;;;;9.98;3.35;;;;;;;19.24;40.40;98900.00;4458401;32;20112;-88
2022/05/11 01:33:26;;;;;;;11.18;3.97;;;;;;;19.28;40.40;98900.56;4472842;32;20108;-88
2022/05/11 01:36:16;;;;;;;11.43;3.97;;;;;;;19.07;40.91;98902.47;4458572;32;20165;-87
2022/05/11 01:38:48;;;;;;;;;;;;;;;19.34;40.42;98902.69;4458510;32;20153;-87
2022/05/11 01:41:26;;;;;;;9.65;3.50;;;;;;;19.58;39.92;98890.78;4472430;32;19968;-87
2022/05/11 01:43:51;;;;;;;10.50;3.78;;;;;;;19.53;39.87;98895.69;4472581;32;20077;-87
2022/05/11 01:46:18;;;;;;;9.05;3.53;;;;;;;19.43;40.13;98895.66;4472429;32;20116;-88
2022/05/11 01:48:43;;;;;;;13.23;4.07;;;;;;;19.52;39.85;98896.69;4472401;32;20123;-87
2022/05/11 01:51:11;;;;;;;9.10;3.72;;;;;;;19.44;40.19;98894.69;4472382;32;20112;-88
2022/05/11 01:53:36;;;;;;;12.60;3.72;;;;;;;19.29;40.71;98898.75;4472319;32;20142;-88
2022/05/11 01:56:03;;;;;;;12.07;3.62;;;;;;;19.11;40.98;98893.22;4472232;32;20100;-87
2022/05/11 01:58:29;;;;;;;11.80;3.92;;;;;;;19.25;40.73;98892.81;4472300;32;20100;-87
2022/05/11 02:00:54;;;;;;;10.15;4.22;;;;;;;19.11;41.18;98893.22;4472101;32;20115;-86
2022/05/11 02:03:21;;;;;;;10.50;3.45;;;;;;;19.32;40.61;98895.81;4472244;32;20416;-87
2022/05/11 02:08:32;;;;;;;11.75;3.85;;;;;;;19.46;40.38;98887.41;4472248;32;20123;-87
2022/05/11 02:10:57;;;;;;;11.80;3.80;;;;;;;19.39;40.62;98897.81;4472169;32;20148;-87
2022/05/11 02:13:23;;;;;;;10.93;3.83;;;;;;;19.37;40.78;98898.91;4472165;32;20450;-87
2022/05/11 02:15:50;;;;;;;9.45;3.67;;;;;;;19.14;41.25;98900.94;4472102;32;20126;-87
2022/05/11 02:18:16;;;;;;;10.07;4.03;;;;;;;19.07;41.42;98899.81;4472168;32;20521;-87
2022/05/11 02:20:41;;;;;;;11.18;4.20;;;;;;;18.99;41.66;98901.31;4472009;32;20081;-86
2022/05/11 02:23:07;;;;;;;9.68;3.95;;;;;;;19.04;41.47;98895.56;4472124;32;20124;-87
2022/05/11 02:25:32;;;;;;;12.35;3.78;;;;;;;19.03;41.51;98891.22;4471277;32;20420;-86
2022/05/11 02:27:58;;;;;;;10.70;4.25;;;;;;;19.02;41.43;98894.84;4472170;32;20115;-87
2022/05/11 02:30:28;;;;;;;9.10;3.85;;;;;;;18.98;41.57;98896.94;4471998;32;20104;-88
2022/05/11 02:32:55;;;;;;;11.63;4.05;;;;;;;19.07;41.45;98889.97;4472199;32;20085;-88
2022/05/11 02:35:21;;;;;;;10.52;3.97;;;;;;;19.14;41.37;98892.94;4471944;32;20494;-88
2022/05/11 02:37:53;;;;;;;10.47;4.07;;;;;;;18.99;41.67;98890.66;4457991;32;20108;-88
2022/05/11 02:40:37;;;;;;;12.70;4.03;;;;;;;19.14;41.48;98884.91;4471928;32;20076;-88
2022/05/11 02:43:03;;;;;;;9.23;3.67;;;;;;;19.03;41.62;98892.06;4472086;32;20101;-88
2022/05/11 02:45:30;;;;;;;11.82;3.90;;;;;;;18.92;41.87;98897.50;4457685;32;20357;-87
2022/05/11 02:47:56;;;;;;;11.15;4.12;;;;;;;18.92;41.97;98891.31;4471997;32;20195;-88
2022/05/11 02:50:28;;;;;;;10.35;4.05;;;;;;;19.05;41.57;98890.09;4471919;32;20093;-88
2022/05/11 02:52:54;;;;;;;10.32;4.25;;;;;;;19.16;41.34;98883.81;4471964;32;20092;-87
2022/05/11 02:55:20;;;;;;;11.68;4.10;;;;;;;19.01;41.73;98882.50;4471841;32;20135;-87
2022/05/11 02:57:46;;;;;;;11.60;4.12;;;;;;;19.07;41.51;98881.97;4471861;32;20126;-87
2022/05/11 03:00:14;;;;;;;10.48;4.57;;;;;;;18.85;42.08;98883.84;4471928;32;20436;-87
2022/05/11 03:02:39;;;;;;;10.63;4.45;;;;;;;18.99;41.73;98882.63;4471716;32;20463;-85
2022/05/11 03:05:06;;;;;;;11.57;4.10;;;;;;;19.15;41.40;98886.63;4471787;32;20092;-86
2022/05/11 03:07:32;;;;;;;10.88;4.28;;;;;;;19.11;41.55;98886.03;4471827;32;20470;-88
2022/05/11 03:09:58;;;;;;;11.60;4.25;;;;;;;18.90;41.96;98888.78;4471785;32;20420;-89
2022/05/11 03:12:23;;;;;;;11.73;4.47;;;;;;;18.92;41.75;98892.16;4471590;32;20138;-88
2022/05/11 03:14:55;;;;;;;11.50;3.95;;;;;;;18.99;41.78;98889.81;4471787;32;20127;-88
2022/05/11 03:17:21;;;;;;;10.63;4.05;;;;;;;18.96;41.84;98887.41;4471706;32;20109;-87
2022/05/11 03:19:46;;;;;;;10.20;3.97;;;;;;;18.98;41.75;98890.78;4471772;32;20111;-87
2022/05/11 03:22:12;;;;;;;11.77;4.43;;;;;;;19.14;41.44;98890.25;4471613;32;20077;-87
2022/05/11 03:24:38;;;;;;;9.63;4.20;;;;;;;19.04;41.98;98890.22;4471633;32;20135;-87
2022/05/11 03:27:04;;;;;;;12.07;4.10;;;;;;;19.21;41.64;98891.41;4471757;32;20455;-87
2022/05/11 03:29:29;;;;;;;12.13;4.37;;;;;;;19.20;41.53;98895.91;4471614;32;20123;-87
2022/05/11 03:34:39;;;;;;;12.52;4.37;;;;;;;19.33;40.88;98897.47;4459673;32;20158;-87
2022/05/11 03:37:17;;;;;;;13.25;4.70;;;;;;;19.26;41.16;98902.53;4471597;32;20101;-89
2022/05/11 03:39:43;;;;;;;11.93;4.10;;;;;;;19.14;41.54;98903.59;4471801;32;20089;-88
2022/05/11 03:42:13;;;;;;;12.13;4.60;;;;;;;19.26;41.21;98907.88;4471772;32;20081;-87
2022/05/11 03:44:39;;;;;;;10.48;4.05;;;;;;;19.40;40.99;98907.50;4471913;32;20131;-86
2022/05/11 03:47:05;;;;;;;11.00;4.35;;;;;;;19.42;41.19;98913.53;4471883;32;20089;-87
2022/05/11 03:49:30;;;;;;;10.88;4.10;;;;;;;19.60;40.70;98912.88;4471871;32;20101;-85
2022/05/11 03:51:56;;;;;;;12.48;4.60;;;;;;;19.72;40.42;98910.94;4471612;32;20145;-84
2022/05/11 03:54:22;;;;;;;9.95;4.43;;;;;;;19.90;40.11;98908.44;4471866;32;20470;-84
2022/05/11 03:56:47;;;;;;;12.65;4.37;;;;;;;19.77;40.22;98906.88;4471766;32;20144;-84
2022/05/11 03:59:13;;;;;;;10.55;4.53;;;;;;;19.86;40.27;98912.34;4471469;32;20085;-84
2022/05/11 04:01:39;;;;;;;9.65;4.03;;;;;;;20.07;39.96;98912.22;4471428;32;20459;-84
2022/05/11 04:04:05;;;;;;;9.07;3.95;;;;;;;20.22;39.94;98910.81;4471450;32;20116;-84
2022/05/11 04:06:30;;;;;;;11.35;3.97;;;;;;;20.37;40.05;98905.88;4471656;32;20097;-85
2022/05/11 04:08:56;;;;;;;10.85;4.35;;;;;;;20.49;40.08;98904.72;4471390;32;20133;-84
2022/05/11 04:11:22;;;;;;;10.93;4.47;;;;;;;20.60;39.94;98903.75;4471603;32;20150;-84
2022/05/11 04:13:49;;;;;;;10.80;4.50;;;;;;;20.73;39.66;98916.81;4471605;32;20127;-83
2022/05/11 04:16:16;;;;;;;10.73;4.35;;;;;;;20.85;39.08;98917.50;4471553;32;20097;-84
2022/05/11 04:18:42;;;;;;;11.40;3.95;;;;;;;20.97;38.95;98914.47;4471486;32;20097;-82
2022/05/11 04:21:08;;;;;;;12.52;3.72;;;;;;;21.18;38.83;98916.06;4471270;32;20084;-83
2022/05/11 04:23:37;;;;;;;11.27;4.18;;;;;;;21.34;38.91;98912.75;4457100;32;20376;-81
2022/05/11 04:26:03;;;;;;;10.50;3.72;;;;;;;21.49;39.02;98916.66;4457508;32;20139;-82
2022/05/11 04:28:30;;;;;;;11.07;4.00;;;;;;;21.64;39.08;98916.97;4471463;32;20093;-82
2022/05/11 04:31:06;;;;;;;10.82;4.32;;;;;;;21.79;39.20;98914.62;4471588;32;20080;-82
2022/05/11 04:33:31;;;;;;;10.60;4.37;;;;;;;22.04;39.42;98920.22;4471591;32;20108;-83
2022/05/11 04:35:57;;;;;;;10.05;3.58;;;;;;;22.21;39.08;98918.53;4471404;32;20138;-83
2022/05/11 04:38:22;;;;;;;11.52;4.00;;;;;;;22.33;38.43;98922.69;4471435;32;20408;-82
2022/05/11 04:40:48;;;;;;;11.80;4.00;;;;;;;22.50;38.41;98912.91;4456943;32;20111;-82
2022/05/11 04:43:14;;;;;;;8.90;3.65;;;;;;;22.62;38.65;98919.72;4457151;32;20089;-82
2022/05/11 04:45:41;;;;;;;12.37;4.75;;;;;;;22.78;37.47;98919.81;4469690;32;20115;-82
2022/05/11 04:48:07;;;;;;;9.73;3.90;;;;;;;22.50;35.77;98916.44;4468850;32;20085;-80
2022/05/11 04:50:33;;;;;;;12.57;4.32;;;;;;;22.61;35.74;98928.75;4454964;32;20103;-80
2022/05/11 04:52:59;;;;;;;10.25;4.20;;;;;;;22.84;35.22;98921.03;4469619;32;20143;-81
2022/05/11 04:55:24;;;;;;;12.32;4.00;;;;;;;22.65;36.39;98918.56;4469726;32;20097;-82
2022/05/11 04:57:50;;;;;;;10.15;4.07;;;;;;;22.75;35.82;98930.88;4469720;32;20100;-81
2022/05/11 05:00:15;;;;;;;9.50;3.90;;;;;;;22.99;34.96;98925.81;4469636;32;20081;-81
2022/05/11 05:02:41;;;;;;;11.35;3.55;;;;;;;23.11;35.50;98924.56;4469462;32;20093;-81
2022/05/11 05:05:09;;;;;;;9.95;3.67;;;;;;;23.19;35.65;98923.75;4482398;32;20114;-80
2022/05/11 05:07:39;;;;;;;9.45;4.00;;;;;;;23.32;35.00;98930.34;4469662;32;20500;-82
2022/05/11 05:10:06;;;;;;;9.30;4.18;;;;;;;23.14;35.76;98927.75;4469539;32;20161;-80
2022/05/11 05:12:32;;;;;;;10.60;4.35;;;;;;;23.41;38.59;98922.31;4469427;32;20084;-80
2022/05/11 05:14:58;;;;;;;11.02;4.00;;;;;;;23.70;39.62;98929.97;4469526;32;20559;-81
2022/05/11 05:17:24;;;;;;;9.95;3.85;;;;;;;23.83;38.67;98934.91;4469331;32;20111;-81
2022/05/11 05:19:49;;;;;;;11.85;4.30;;;;;;;23.92;37.18;98926.69;4469283;32;20340;-81
2022/05/11 05:22:15;;;;;;;11.32;4.62;;;;;;;24.19;37.63;98927.37;4469278;32;20081;-80
2022/05/11 05:24:42;;;;;;;12.65;4.30;;;;;;;24.32;37.33;98926.91;4469182;32;20422;-80
2022/05/11 05:27:07;;;;;;;10.18;4.22;;;;;;;24.12;35.18;98927.19;4469172;32;20159;-81
2022/05/11 05:32:17;;;;;;;8.85;3.47;;;;;;;24.02;34.33;98931.06;4469425;32;20145;-81
2022/05/11 05:34:43;;;;;;;9.57;4.05;;;;;;;24.25;34.33;98937.47;4468946;32;20116;-80
2022/05/11 05:37:10;;;;;;;12.02;4.18;;;;;;;23.71;35.06;98937.03;4469074;32;20085;-81
2022/05/11 05:39:35;;;;;;;11.63;4.03;;;;;;;23.93;34.83;98941.84;4468755;32;20132;-81
2022/05/11 05:42:01;;;;;;;11.38;4.75;;;;;;;24.09;34.70;98932.94;4468296;32;20415;-80
2022/05/11 05:44:30;;;;;;;10.45;4.20;;;;;;;24.08;34.51;98933.94;4468461;32;20092;-80
2022/05/11 05:47:01;;;;;;;10.82;4.03;;;;;;;24.09;33.76;98924.84;4468471;32;20159;-81
2022/05/11 05:49:28;;;;;;;11.65;4.43;;;;;;;23.96;34.47;98940.66;4468306;32;20299;-82
2022/05/11 05:51:53;;;;;;;12.33;4.57;;;;;;;23.86;34.84;98940.81;4467836;32;20104;-82
2022/05/11 05:54:18;;;;;;;12.35;4.15;;;;;;;23.77;34.97;98935.53;4484408;32;20103;-81
2022/05/11 05:56:44;;;;;;;8.98;3.92;;;;;;;23.73;35.62;98938.53;4470073;32;20065;-82
2022/05/11 05:59:10;;;;;;;11.18;4.82;;;;;;;23.98;36.41;98938.62;4484360;32;20142;-81
2022/05/11 06:01:36;;;;;;;12.80;4.72;;;;;;;24.10;37.57;98931.91;4471951;32;20482;-78
2022/05/11 06:04:01;;;;;;;10.98;4.03;;;;;;;24.37;37.28;98929.91;4472568;32;20173;-81
2022/05/11 06:06:27;;;;;;;10.43;4.35;;;;;;;24.39;37.86;98935.13;4479774;32;20092;-81
2022/05/11 06:08:52;;;;;;;10.73;4.35;;;;;;;24.48;37.00;98934.94;4469651;32;20088;-82
2022/05/11 06:11:17;;;;;;;12.27;4.65;;;;;;;24.68;35.44;98937.31;4470798;32;20463;-82
2022/05/11 06:13:45;;;;;;;13.07;5.47;;;;;;;24.61;36.24;98937.16;4469748;32;20136;-81
2022/05/11 06:16:16;;;;;;;11.65;5.00;;;;;;;24.84;36.83;98934.59;4471038;32;20188;-79
2022/05/11 06:18:43;;;;;;;10.88;4.70;;;;;;;24.96;36.20;98940.47;4469639;32;20081;-78
2022/05/11 06:21:10;;;;;;;9.95;4.47;;;;;;;24.96;35.30;98937.78;4470724;32;20126;-79
2022/05/11 06:23:36;;;;;;;12.93;4.60;;;;;;;25.13;35.44;98935.88;4471153;32;20155;-80
2022/05/11 06:26:02;;;;;;;11.95;4.85;;;;;;;25.39;35.44;98938.31;4467834;32;20162;-79
2022/05/11 06:28:28;;;;;;;11.55;5.00;;;;;;;25.40;35.29;98939.16;4467524;32;20188;-79
2022/05/11 06:30:53;;;;;;;13.13;4.85;;;;;;;25.49;35.02;98940.81;4469179;32;20089;-81
2022/05/11 06:33:18;;;;;;;12.07;5.50;;;;;;;25.58;34.71;98936.22;4469941;32;20088;-80
2022/05/11 06:35:45;;;;;;;13.52;6.00;;;;;;;25.71;34.34;98939.19;4470077;32;20456;-79
2022/05/11 06:38:11;;;;;;;15.02;6.15;;;;;;;25.84;34.45;98934.03;4469113;32;20061;-80
2022/05/11 06:40:37;;;;;;;17.40;5.97;;;;;;;25.88;35.11;98937.22;4470564;32;20345;-80
2022/05/11 06:43:03;;;;;;;13.48;6.15;;;;;;;25.68;34.66;98943.06;4470758;32;20085;-79
2022/05/11 06:45:29;;;;;;;15.57;5.83;;;;;;;25.89;34.53;98941.63;4469508;32;20085;-79
2022/05/11 06:47:55;;;;;;;14.70;6.03;;;;;;;25.85;34.83;98941.13;4470715;32;20114;-80
2022/05/11 06:50:20;;;;;;;14.10;6.05;;;;;;;25.99;34.44;98944.94;4470635;32;20096;-79
2022/05/11 06:52:46;;;;;;;14.73;6.37;;;;;;;25.95;33.84;98940.91;4470816;32;20088;-80
2022/05/11 07:00:40;;;;;;;13.95;5.93;;;;;;;26.08;33.92;98943.03;4470605;32;20143;-79
2022/05/11 07:03:05;;;;;;;14.38;6.40;;;;;;;26.00;34.12;98941.25;4469251;32;20100;-82
2022/05/11 07:05:32;;;;;;;16.35;6.35;;;;;;;26.07;33.84;98944.88;4470762;32;20380;-82
2022/05/11 07:07:58;;;;;;;11.85;5.72;;;;;;;26.24;33.44;98944.78;4471903;32;20081;-81
2022/05/11 07:10:23;;;;;;;15.25;6.00;;;;;;;26.20;33.42;98938.06;4470811;32;20128;-81
2022/05/11 07:12:49;;;;;;;14.13;6.47;;;;;;;26.21;33.86;98943.28;4471203;32;20109;-82
2022/05/11 07:15:18;;;;;;;12.68;5.65;;;;;;;26.31;33.78;98940.34;4471716;32;20106;-81
2022/05/11 07:17:49;;;;;;;11.70;4.82;;;;;;;26.38;33.72;98949.37;4470664;32;20088;-81
2022/05/11 07:20:21;;;;;;;10.35;3.47;;;;;;;26.29;33.18;98943.22;4469951;32;20185;-81
2022/05/11 07:22:46;;;;;;;10.68;4.40;;;;;;;26.39;30.84;98942.97;4470595;32;20105;-81
2022/05/11 07:25:15;;;;;;;9.98;3.20;;;;;;;26.26;30.25;98935.47;4471744;32;20111;-81
2022/05/11 07:27:42;;;;;;;10.32;3.12;;;;;;;26.08;30.42;98940.34;4471640;32;20088;-81
2022/05/11 07:30:11;;;;;;;9.13;3.12;;;;;;;26.14;30.30;98933.37;4470562;32;20120;-81
2022/05/11 07:32:36;;;;;;;10.45;3.03;;;;;;;26.12;29.51;98935.41;4471891;32;20123;-81
2022/05/11 07:35:03;;;;;;;7.68;2.90;;;;;;;26.18;29.26;98932.00;4471597;32;20092;-81
2022/05/11 07:37:28;;;;;;;11.48;3.12;;;;;;;26.06;28.15;98935.13;4471661;32;20144;-81
2022/05/11 07:39:55;;;;;;;12.55;3.40;;;;;;;26.09;27.87;98936.59;4471526;32;20089;-81
2022/05/11 07:42:21;;;;;;;12.02;3.40;;;;;;;26.34;29.24;98937.25;4471567;32;20574;-81
2022/05/11 07:44:46;;;;;;;11.12;3.35;;;;;;;26.36;29.27;98934.37;4471620;32;20096;-81
2022/05/11 07:47:12;;;;;;;8.70;2.95;;;;;;;26.62;29.04;98936.72;4471519;32;20099;-81
2022/05/11 07:49:38;;;;;;;10.93;3.42;;;;;;;26.77;28.45;98934.03;4471530;32;20115;-81
2022/05/11 07:52:05;;;;;;;12.20;3.53;;;;;;;26.67;28.79;98937.00;4471693;32;20089;-81
2022/05/11 07:54:30;;;;;;;7.87;2.83;;;;;;;26.55;28.23;98935.72;4471612;32;20466;-81
2022/05/11 07:59:56;;;;;;;8.48;2.90;;;;;;;26.28;28.87;98936.13;4471668;32;20172;-82
2022/05/11 08:02:27;;;;;;;9.38;3.00;;;;;;;26.51;29.13;98937.12;4471477;32;20100;-81
2022/05/11 08:04:53;;;;;;;11.77;3.17;;;;;;;26.39;28.69;98940.25;4471615;32;20474;-81
2022/05/11 08:07:22;;;;;;;9.82;3.55;;;;;;;26.40;27.48;98939.22;4470600;32;20085;-81
2022/05/11 08:09:47;;;;;;;8.80;2.80;;;;;;;26.33;27.94;98934.72;4471679;32;20121;-81
2022/05/11 08:12:13;;;;;;;9.27;2.97;;;;;;;26.49;28.02;98937.31;4470720;32;20124;-81
2022/05/11 08:14:38;;;;;;;10.02;3.10;;;;;;;26.75;28.47;98926.09;4471569;32;20076;-81
2022/05/11 08:17:04;;;;;;;7.55;2.92;;;;;;;26.82;28.29;98927.03;4471617;32;20103;-81
2022/05/11 08:19:29;;;;;;;7.65;2.90;;;;;;;26.78;27.38;98924.91;4471790;32;20100;-81
2022/05/11 08:21:55;;;;;;;8.05;2.83;;;;;;;26.67;27.32;98931.59;4471554;32;20073;-81
2022/05/11 08:24:22;;;;;;;7.00;3.05;;;;;;;26.74;27.65;98929.00;4471691;32;20419;-81
2022/05/11 08:26:50;;;;;;;12.02;3.08;;;;;;;26.84;28.48;98926.84;4471598;32;20142;-81
2022/05/11 08:33:19;;;;;;;7.00;2.80;;;;;;;26.99;28.56;98929.59;4471510;32;20123;-81
2022/05/11 08:34:46;;;;;;;8.20;2.83;;;;;;;26.93;28.04;98930.34;4470294;32;20110;-81
2022/05/11 08:37:12;;;;;;;9.32;3.12;;;;;;;26.87;27.23;98930.03;4471145;32;20092;-81
2022/05/11 08:39:38;;;;;;;8.80;3.30;;;;;;;27.05;27.43;98928.84;4471039;32;20119;-81
2022/05/11 08:42:04;;;;;;;8.27;2.87;;;;;;;27.32;26.67;98921.94;4471182;32;20397;-81
2022/05/11 08:44:34;;;;;;;9.05;3.20;;;;;;;27.35;26.40;98918.87;4471124;32;20097;-81
2022/05/11 08:47:14;;;;;;;9.50;3.37;;;;;;;27.11;27.27;98922.66;4469934;32;20122;-81
2022/05/11 08:49:46;;;;;;;9.18;3.42;;;;;;;27.09;28.67;98924.72;4470167;32;20097;-81
2022/05/11 08:52:39;;;;;;;12.48;4.03;;;;;;;27.43;27.35;98926.06;4469837;32;20104;-81
2022/05/11 08:55:31;;;;;;;9.45;3.45;;;;;;;27.54;27.52;98916.59;4461769;32;20103;-81
2022/05/11 08:57:58;;;;;;;12.45;3.60;;;;;;;27.59;26.37;98923.09;4465566;32;20084;-81
2022/05/11 09:00:23;;;;;;;;;;;;;;;27.58;27.54;98920.59;4470104;32;20159;-81
2022/05/11 09:02:58;;;;;;;11.30;3.20;;;;;;;27.42;26.22;98927.88;4470960;32;19987;-81
2022/05/11 09:05:27;;;;;;;10.60;2.97;;;;;;;27.09;27.03;98930.12;4469963;32;20156;-81
2022/05/11 09:07:54;;;;;;;17.50;3.62;;;;;;;27.48;25.73;98918.19;4469702;32;20137;-81
2022/05/11 09:10:33;;;;;;;10.55;3.20;;;;;;;27.35;26.43;98927.00;4469688;32;20169;-81
2022/05/11 09:13:04;;;;;;;10.88;3.45;;;;;;;27.25;26.33;98923.72;4469683;32;20147;-81
2022/05/11 09:15:53;;;;;;;7.80;2.75;;;;;;;27.23;25.59;98923.88;4470870;32;20193;-81
2022/05/11 09:18:21;;;;;;;8.70;3.08;;;;;;;27.49;25.68;98925.28;4470792;32;20084;-81
2022/05/11 09:20:50;;;;;;;9.43;3.12;;;;;;;27.36;25.19;98919.72;4470736;32;20116;-81
2022/05/11 09:23:31;;;;;;;8.60;3.10;;;;;;;27.36;25.17;98914.28;4469487;32;20097;-81
2022/05/11 09:26:00;;;;;;;7.75;3.10;;;;;;;27.25;25.89;98924.56;4470617;32;20072;-81
2022/05/11 09:28:31;;;;;;;8.38;3.33;;;;;;;26.59;26.67;98923.56;4469437;32;20076;-81
2022/05/11 09:31:03;;;;;;;10.57;3.47;;;;;;;26.83;26.60;98915.22;4470586;32;20096;-81
2022/05/11 09:33:39;;;;;;;8.98;3.40;;;;;;;26.90;26.82;98922.59;4470598;32;20153;-81
2022/05/11 09:36:07;;;;;;;10.02;3.47;;;;;;;27.14;27.07;98921.44;4470613;32;20119;-81
2022/05/11 09:38:44;;;;;;;8.40;3.10;;;;;;;26.92;27.29;98923.22;4472357;32;20080;-80
2022/05/11 09:41:18;;;;;;;8.48;3.00;;;;;;;27.25;27.77;98921.88;4472477;32;20145;-81
2022/05/11 09:43:53;;;;;;;12.05;3.30;;;;;;;27.40;26.75;98921.84;4472586;32;20085;-81
2022/05/11 09:46:19;;;;;;;9.73;3.17;;;;;;;27.40;26.91;98923.72;4472457;32;20084;-81
2022/05/11 09:49:01;;;;;;;8.25;2.90;;;;;;;27.50;26.14;98918.00;4472429;32;20114;-81
2022/05/11 09:51:54;;;;;;;9.88;3.25;;;;;;;27.70;26.33;98912.81;4472392;32;20116;-81
2022/05/11 09:54:38;;;;;;;10.65;3.20;;;;;;;27.88;26.27;98905.13;4472388;32;20121;-81
2022/05/11 09:57:03;;;;;;;13.60;3.60;;;;;;;27.96;26.15;98912.28;4472486;32;20077;-81
2022/05/11 09:59:32;;;;;;;15.15;3.90;;;;;;;28.08;25.50;98907.19;4472334;32;20376;-81
2022/05/11 10:02:01;;;;;;;8.77;3.10;;;;;;;28.15;24.59;98908.94;4471087;32;20149;-81
2022/05/11 10:04:39;;;;;;;9.50;3.78;;;;;;;28.09;24.79;98911.59;4472411;32;20093;-81
2022/05/11 10:07:09;;;;;;;;;;;;;;;28.28;24.37;98907.38;4471515;32;20533;-81
2022/05/11 10:09:40;;;;;;;10.82;3.53;;;;;;;28.44;25.11;98912.53;4471207;32;20526;-81
2022/05/11 10:12:08;;;;;;;8.48;3.22;;;;;;;28.56;24.46;98904.72;4472269;32;20158;-81
2022/05/11 10:23:07;;;;;;;9.82;3.28;;;;;;;28.68;24.00;98897.72;4472178;32;20123;-81
2022/05/11 10:25:40;;;;;;;8.95;3.05;;;;;;;28.66;23.55;98898.97;4472226;32;20148;-81
2022/05/11 10:28:37;;;;;;;11.55;3.37;;;;;;;28.46;25.62;98905.03;4472179;32;20085;-81
2022/05/11 10:31:29;;;;;;;10.32;2.97;;;;;;;28.58;23.97;98899.94;4472135;32;20081;-81
2022/05/11 10:34:56;;;;;;;9.35;3.40;;;;;;;28.54;24.96;98895.97;4458174;32;20131;-81
2022/05/11 10:37:31;;;;;;;6.97;2.60;;;;;;;28.69;23.95;98890.44;4333456;33;20119;-81
2022/05/11 10:40:01;;;;;;;12.27;3.10;;;;;;;28.79;23.78;98897.16;4333577;33;20096;-81
2022/05/11 10:42:36;;;;;;;8.25;2.97;;;;;;;28.70;23.62;98887.50;4333302;33;20100;-81
2022/05/11 10:45:05;;;;;;;8.25;3.10;;;;;;;28.91;23.19;98886.59;4333568;33;20333;-81
2022/05/11 10:47:44;;;;;;;8.95;3.35;;;;;;;28.73;24.05;98894.44;4332408;33;20104;-81
2022/05/11 10:50:22;;;;;;;7.07;2.92;;;;;;;28.91;24.08;98885.78;4333381;33;20087;-81
2022/05/11 10:52:54;;;;;;;10.15;3.00;;;;;;;29.04;23.17;98879.59;4333306;33;20088;-81
2022/05/11 10:55:25;;;;;;;9.65;3.30;;;;;;;29.23;23.50;98887.03;4333305;33;20151;-81
2022/05/11 10:58:18;;;;;;;8.48;3.17;;;;;;;29.15;22.89;98889.91;4333371;33;20122;-81
2022/05/11 11:00:51;;;;;;;8.65;2.80;;;;;;;29.10;23.54;98882.31;4333404;33;20114;-80
2022/05/11 11:03:19;;;;;;;13.80;3.10;;;;;;;29.22;23.53;98885.34;4333686;33;20200;-81
2022/05/11 11:07:11;;;;;;;8.38;2.75;;;;;;;28.89;23.19;98879.72;4333168;33;20126;-81
2022/05/11 11:09:06;;;;;;;9.93;3.00;;;;;;;28.78;23.61;98892.81;4333192;33;20133;-81
2022/05/11 11:12:06;;;;;;;7.43;2.78;;;;;;;28.63;22.61;98887.47;4339064;32;20168;-81
2022/05/11 11:14:35;;;;;;;7.95;3.10;;;;;;;28.61;23.21;98881.41;4456042;32;20119;-81
2022/05/11 11:17:01;;;;;;;9.55;2.90;;;;;;;29.00;24.24;98879.97;4470565;32;20132;-81
2022/05/11 11:19:27;;;;;;;8.07;2.90;;;;;;;29.13;23.26;98878.41;4470690;32;20160;-81
2022/05/11 11:21:53;;;;;;;7.43;2.67;;;;;;;29.12;23.06;98872.13;4470645;32;20111;-81
2022/05/11 11:24:22;;;;;;;9.90;2.97;;;;;;;29.28;23.13;98868.25;4470618;32;20081;-81
2022/05/11 11:26:50;;;;;;;10.45;3.10;;;;;;;29.40;22.71;98863.91;4471878;32;20173;-81
2022/05/11 11:29:18;;;;;;;10.38;3.03;;;;;;;29.43;22.47;98864.56;4471703;32;20089;-81
2022/05/11 11:32:17;;;;;;;8.38;2.95;;;;;;;29.60;22.87;98857.72;4471766;32;20076;-81
2022/05/11 11:35:11;;;;;;;9.90;3.33;;;;;;;29.30;22.08;98865.31;4459146;32;20073;-80
2022/05/11 11:37:43;;;;;;;8.57;2.87;;;;;;;29.30;21.59;98859.91;4471752;32;20081;-81
2022/05/11 11:40:14;;;;;;;8.93;3.12;;;;;;;29.30;22.20;98863.44;4471739;32;20601;-81
2022/05/11 11:42:44;;;;;;;10.10;3.00;;;;;;;29.16;22.56;98862.56;4471563;32;20096;-81
2022/05/11 11:45:31;;;;;;;9.65;3.00;;;;;;;29.11;22.88;98851.47;4470487;32;20107;-81
2022/05/11 11:48:03;;;;;;;8.35;2.83;;;;;;;28.92;23.19;98850.31;4471646;32;20117;-81
2022/05/11 11:50:47;;;;;;;9.20;2.97;;;;;;;28.76;23.91;98850.63;4471554;32;20105;-81
2022/05/11 11:53:23;;;;;;;22.83;4.50;;;;;;;28.35;24.16;98846.78;4471583;32;20428;-81
2022/05/11 11:55:49;;;;;;;9.98;3.05;;;;;;;28.15;23.97;98851.22;4470432;32;20085;-81
2022/05/11 11:58:29;;;;;;;9.88;3.25;;;;;;;28.23;24.14;98842.97;4471304;32;20107;-81
2022/05/11 12:01:03;;;;;;;9.10;3.03;;;;;;;28.20;24.87;98849.63;4470358;32;20192;-81
2022/05/11 12:03:33;;;;;;;18.27;4.62;;;;;;;28.42;24.04;98842.25;4471906;32;20088;-81
2022/05/11 12:15:01;;;;;;;8.52;3.20;;;;;;;28.07;23.93;98837.81;4471699;32;20108;-81
2022/05/11 12:17:05;;;;;;;8.00;3.10;;;;;;;28.14;25.57;98833.28;4470420;32;20224;-81
2022/05/11 12:19:35;;;;;;;9.27;3.15;;;;;;;28.21;25.14;98826.06;4470307;32;20129;-81